EmailTwitter


Surface observations / France / LFMK (07635)

Regions: Quebec | Canada | USA | Europe | France | UK | Elsewhere
Station
Display
Info & Location for LFMK (07635) | Help decoding METAR

Weather Conditions observed on 2018/05/27 at 04:30 UTC at CARCASSONNE/SALV, FR (LFMK)

Temperature: 17.0 Celsius.

Dewpoint: 13.0 Celsius.

Relative Humidity: 77%

Winds: Southeast at 13 km/h or 7 knots.

Mean Sea level Pressure: 101.40 kilopascals.

Coded METAR:

LFMK 270430Z AUTO 12007KT 080V160 CAVOK 17/13 Q1014 TEMPO BKN011 =